logo dgac
Lunes 20 de Mayo del 2019
Buscar por aerodromo o helipuerto
Ingrese nombre de aeródromo, localidad o designador OACI:
TAF: TAF SCIC 201020Z 2012/2024 21004KT 8000 BKN007 BKN013 TX12/2019Z TN07/2012Z TEMPO 2012/2016 4000 BR BKN005 BECMG 2018/2020 22008KT 9999 FEW020 SCT050
TAF del 20/05/2019 a las 10:20 UTC
Período de validez: desde el 20 a las 12:00 UTC hasta el 20 a las 24:00 UTC
Viento: dirección 210 grados, velocidad 4 nudos
Visibilidad: 8000 metros
Nubes: Nublado a 700 pies sobre el nivel del aeródromo
Nubes: Nublado a 1300 pies sobre el nivel del aeródromo
Temperatura máxima: 12ºC el 20 a las 19:00 UTC
Temperatura mínima: 7ºC el 20 a las 12:00 UTC
Se espera en forma temporal entre las 12:00 UTC del 20 y las 16:00 UTC del 20:
Visibilidad: 4000 metros
Neblina
Nubes: Nublado a 500 pies sobre el nivel del aeródromo
Se espera un cambio entre las 18:00 UTC del 20 y las 20:00 UTC del 20, :
Viento: dirección 220 grados, velocidad 8 nudos
Visibilidad: 10 km o más
Nubes: Escasa nubosidad a 2000 pies sobre el nivel del aeródromo
Nubes: Nubosidad parcial a 5000 pies sobre el nivel del aeródromo